Lac-Bouchette, Canada
Current Conditions -  °F | °C
As of 1:00 PM on Thursday 29 Jan 2015 (Local Time) from CYRJ Reporting Station
Overcast Overcast  
Wind Chill: 14°   Ceiling: 12000
Heat Index: 14°   Visibility: 40mi
Dew Point:   Wind: 2mph
Humidity: 62%   Direction: NA
Pressure: 30.05"   Gusts: NA
Location:  48.27°N, 72.17°W
Report Text: CYRJ 291800Z VRB02KT 40SM OVC120 M10/M16 A3005 RMK AC8 SLP191
Loading
Personal Weather Stations






























Interactive Weather Map New forecast layout! Learn more

10-Day Weather Forecast

Advertisements
Track Severe Weather on mobile